Terminal Aerodrome Forecast
Issued by NWS

Home | Current Version | Previous Version | Text Only | Print | Product List | Glossary On
Versions: 1 2 3 4 5 6 7 8 9 10 11 12 13 14 15 16
924
FTUS46 KPDT 060520
TAFRDM
TAF
KRDM 060520Z 0606/0706 31004KT P6SM SCT018 OVC040
      TEMPO 0606/0610 3SM -SN BR OVC018
     FM061200 31008KT P6SM BKN020
     FM070000 34005KT P6SM SCT050=

USA.gov is the U.S. government's official web portal to all federal, state and local government web resources and services.